sensor_id;sensor_type;location;lat;lon;timestamp;P1;durP1;ratioP1;P2;durP2;ratioP2
54517;SDS011;40423;53.176;6.002;2023-09-30T00:01:44;9.35;;;3.33;;
54517;SDS011;40423;53.176;6.002;2023-09-30T00:04:10;12.50;;;3.67;;
54517;SDS011;40423;53.176;6.002;2023-09-30T00:06:36;12.23;;;3.35;;
54517;SDS011;40423;53.176;6.002;2023-09-30T00:09:02;12.48;;;3.38;;
54517;SDS011;40423;53.176;6.002;2023-09-30T00:11:28;16.25;;;3.35;;
54517;SDS011;40423;53.176;6.002;2023-09-30T00:13:54;9.45;;;3.03;;
54517;SDS011;40423;53.176;6.002;2023-09-30T00:16:19;11.63;;;3.65;;
54517;SDS011;40423;53.176;6.002;2023-09-30T00:18:45;11.38;;;3.30;;
54517;SDS011;40423;53.176;6.002;2023-09-30T00:21:11;7.15;;;2.65;;
54517;SDS011;40423;53.176;6.002;2023-09-30T00:23:37;8.93;;;2.92;;
54517;SDS011;40423;53.176;6.002;2023-09-30T00:26:03;14.60;;;3.55;;
54517;SDS011;40423;53.176;6.002;2023-09-30T00:28:29;11.88;;;3.55;;
54517;SDS011;40423;53.176;6.002;2023-09-30T00:30:54;8.63;;;3.13;;
54517;SDS011;40423;53.176;6.002;2023-09-30T00:33:20;12.02;;;3.38;;
54517;SDS011;40423;53.176;6.002;2023-09-30T00:35:46;13.52;;;3.75;;
54517;SDS011;40423;53.176;6.002;2023-09-30T00:38:12;10.85;;;3.75;;
54517;SDS011;40423;53.176;6.002;2023-09-30T00:40:37;9.80;;;3.33;;
54517;SDS011;40423;53.176;6.002;2023-09-30T00:43:03;12.35;;;3.47;;
54517;SDS011;40423;53.176;6.002;2023-09-30T00:45:29;10.18;;;3.72;;
54517;SDS011;40423;53.176;6.002;2023-09-30T00:47:55;13.68;;;4.18;;
54517;SDS011;40423;53.176;6.002;2023-09-30T00:50:21;10.88;;;3.60;;
54517;SDS011;40423;53.176;6.002;2023-09-30T00:52:48;9.50;;;3.75;;
54517;SDS011;40423;53.176;6.002;2023-09-30T00:55:15;10.25;;;3.70;;
54517;SDS011;40423;53.176;6.002;2023-09-30T00:57:42;10.13;;;3.00;;
54517;SDS011;40423;53.176;6.002;2023-09-30T01:00:09;13.73;;;3.45;;
54517;SDS011;40423;53.176;6.002;2023-09-30T01:02:40;14.45;;;4.18;;
54517;SDS011;40423;53.176;6.002;2023-09-30T01:05:07;10.98;;;3.70;;
54517;SDS011;40423;53.176;6.002;2023-09-30T01:07:33;15.82;;;3.55;;
54517;SDS011;40423;53.176;6.002;2023-09-30T01:10:00;11.10;;;4.03;;
54517;SDS011;40423;53.176;6.002;2023-09-30T01:12:26;13.30;;;3.30;;
54517;SDS011;40423;53.176;6.002;2023-09-30T01:14:56;10.77;;;3.00;;
54517;SDS011;40423;53.176;6.002;2023-09-30T01:17:23;11.45;;;3.55;;
54517;SDS011;40423;53.176;6.002;2023-09-30T01:19:49;10.00;;;3.20;;
54517;SDS011;40423;53.176;6.002;2023-09-30T01:22:17;10.07;;;3.17;;
54517;SDS011;40423;53.176;6.002;2023-09-30T01:24:43;11.18;;;3.78;;
54517;SDS011;40423;53.176;6.002;2023-09-30T01:27:09;13.13;;;3.25;;
54517;SDS011;40423;53.176;6.002;2023-09-30T01:29:35;12.13;;;3.35;;
54517;SDS011;40423;53.176;6.002;2023-09-30T01:32:03;11.85;;;2.75;;
54517;SDS011;40423;53.176;6.002;2023-09-30T01:34:33;14.02;;;3.30;;
54517;SDS011;40423;53.176;6.002;2023-09-30T01:36:59;10.63;;;3.45;;
54517;SDS011;40423;53.176;6.002;2023-09-30T01:39:25;13.52;;;3.38;;
54517;SDS011;40423;53.176;6.002;2023-09-30T01:41:51;11.70;;;2.80;;
54517;SDS011;40423;53.176;6.002;2023-09-30T01:44:17;8.05;;;2.97;;
54517;SDS011;40423;53.176;6.002;2023-09-30T01:46:43;8.68;;;2.60;;
54517;SDS011;40423;53.176;6.002;2023-09-30T01:49:08;19.30;;;2.40;;
54517;SDS011;40423;53.176;6.002;2023-09-30T01:51:35;11.05;;;2.47;;
54517;SDS011;40423;53.176;6.002;2023-09-30T01:54:01;7.88;;;2.25;;
54517;SDS011;40423;53.176;6.002;2023-09-30T01:56:26;11.88;;;2.78;;
54517;SDS011;40423;53.176;6.002;2023-09-30T01:58:52;8.77;;;2.92;;
54517;SDS011;40423;53.176;6.002;2023-09-30T02:01:18;6.88;;;2.30;;
54517;SDS011;40423;53.176;6.002;2023-09-30T02:03:43;11.95;;;2.70;;
54517;SDS011;40423;53.176;6.002;2023-09-30T02:06:09;11.68;;;2.85;;
54517;SDS011;40423;53.176;6.002;2023-09-30T02:08:35;9.73;;;3.00;;
54517;SDS011;40423;53.176;6.002;2023-09-30T02:11:01;15.23;;;3.30;;
54517;SDS011;40423;53.176;6.002;2023-09-30T02:13:28;11.63;;;2.80;;
54517;SDS011;40423;53.176;6.002;2023-09-30T02:15:54;10.68;;;2.95;;
54517;SDS011;40423;53.176;6.002;2023-09-30T02:18:23;9.40;;;2.83;;
54517;SDS011;40423;53.176;6.002;2023-09-30T02:20:49;9.68;;;2.75;;
54517;SDS011;40423;53.176;6.002;2023-09-30T02:23:16;11.93;;;2.55;;
54517;SDS011;40423;53.176;6.002;2023-09-30T02:25:42;7.00;;;2.58;;
54517;SDS011;40423;53.176;6.002;2023-09-30T02:28:08;9.65;;;3.13;;
54517;SDS011;40423;53.176;6.002;2023-09-30T02:30:35;8.30;;;2.58;;
54517;SDS011;40423;53.176;6.002;2023-09-30T02:33:01;7.88;;;2.28;;
54517;SDS011;40423;53.176;6.002;2023-09-30T02:35:28;12.75;;;2.78;;
54517;SDS011;40423;53.176;6.002;2023-09-30T02:37:54;10.63;;;2.90;;
54517;SDS011;40423;53.176;6.002;2023-09-30T02:40:20;10.40;;;2.97;;
54517;SDS011;40423;53.176;6.002;2023-09-30T02:42:46;11.23;;;2.40;;
54517;SDS011;40423;53.176;6.002;2023-09-30T02:45:14;8.32;;;2.50;;
54517;SDS011;40423;53.176;6.002;2023-09-30T02:47:42;5.10;;;2.03;;
54517;SDS011;40423;53.176;6.002;2023-09-30T02:50:08;10.40;;;2.72;;
54517;SDS011;40423;53.176;6.002;2023-09-30T02:52:39;8.02;;;2.40;;
54517;SDS011;40423;53.176;6.002;2023-09-30T02:55:06;9.20;;;2.20;;
54517;SDS011;40423;53.176;6.002;2023-09-30T02:57:33;7.13;;;2.38;;
54517;SDS011;40423;53.176;6.002;2023-09-30T03:00:01;11.98;;;2.60;;
54517;SDS011;40423;53.176;6.002;2023-09-30T03:02:37;8.82;;;2.55;;
54517;SDS011;40423;53.176;6.002;2023-09-30T03:05:03;5.90;;;2.50;;
54517;SDS011;40423;53.176;6.002;2023-09-30T03:07:29;8.50;;;2.22;;
54517;SDS011;40423;53.176;6.002;2023-09-30T03:09:55;9.57;;;2.63;;
54517;SDS011;40423;53.176;6.002;2023-09-30T03:12:20;8.75;;;3.47;;
54517;SDS011;40423;53.176;6.002;2023-09-30T03:14:46;8.43;;;2.53;;
54517;SDS011;40423;53.176;6.002;2023-09-30T03:17:13;10.02;;;2.75;;
54517;SDS011;40423;53.176;6.002;2023-09-30T03:19:38;11.23;;;2.85;;
54517;SDS011;40423;53.176;6.002;2023-09-30T03:22:04;10.52;;;2.70;;
54517;SDS011;40423;53.176;6.002;2023-09-30T03:24:35;12.45;;;3.35;;
54517;SDS011;40423;53.176;6.002;2023-09-30T03:27:02;7.93;;;3.17;;
54517;SDS011;40423;53.176;6.002;2023-09-30T03:29:28;8.82;;;2.65;;
54517;SDS011;40423;53.176;6.002;2023-09-30T03:31:54;7.82;;;2.65;;
54517;SDS011;40423;53.176;6.002;2023-09-30T03:34:19;7.57;;;2.92;;
54517;SDS011;40423;53.176;6.002;2023-09-30T03:36:45;9.38;;;4.85;;
54517;SDS011;40423;53.176;6.002;2023-09-30T03:39:11;8.38;;;3.97;;
54517;SDS011;40423;53.176;6.002;2023-09-30T03:41:40;9.95;;;2.88;;
54517;SDS011;40423;53.176;6.002;2023-09-30T03:44:05;10.48;;;2.90;;
54517;SDS011;40423;53.176;6.002;2023-09-30T03:46:31;10.93;;;4.20;;
54517;SDS011;40423;53.176;6.002;2023-09-30T03:48:57;10.05;;;3.85;;
54517;SDS011;40423;53.176;6.002;2023-09-30T03:51:24;10.55;;;5.15;;
54517;SDS011;40423;53.176;6.002;2023-09-30T03:53:50;10.20;;;3.03;;
54517;SDS011;40423;53.176;6.002;2023-09-30T03:56:16;7.70;;;2.63;;
54517;SDS011;40423;53.176;6.002;2023-09-30T03:58:43;10.73;;;2.67;;
54517;SDS011;40423;53.176;6.002;2023-09-30T04:01:10;8.13;;;3.00;;
54517;SDS011;40423;53.176;6.002;2023-09-30T04:03:36;6.85;;;3.10;;
54517;SDS011;40423;53.176;6.002;2023-09-30T04:06:04;7.30;;;2.83;;
54517;SDS011;40423;53.176;6.002;2023-09-30T04:08:33;11.40;;;3.60;;
54517;SDS011;40423;53.176;6.002;2023-09-30T04:10:59;7.80;;;2.70;;
54517;SDS011;40423;53.176;6.002;2023-09-30T04:13:25;9.48;;;2.92;;
54517;SDS011;40423;53.176;6.002;2023-09-30T04:15:52;8.27;;;2.92;;
54517;SDS011;40423;53.176;6.002;2023-09-30T04:18:18;11.23;;;3.10;;
54517;SDS011;40423;53.176;6.002;2023-09-30T04:20:46;12.00;;;3.25;;
54517;SDS011;40423;53.176;6.002;2023-09-30T04:23:13;6.90;;;2.83;;
54517;SDS011;40423;53.176;6.002;2023-09-30T04:25:39;9.10;;;3.03;;
54517;SDS011;40423;53.176;6.002;2023-09-30T04:28:08;9.60;;;3.10;;
54517;SDS011;40423;53.176;6.002;2023-09-30T04:30:33;10.85;;;3.53;;
54517;SDS011;40423;53.176;6.002;2023-09-30T04:32:59;12.82;;;2.85;;
54517;SDS011;40423;53.176;6.002;2023-09-30T04:35:26;5.68;;;2.45;;
54517;SDS011;40423;53.176;6.002;2023-09-30T04:37:52;12.15;;;2.95;;
54517;SDS011;40423;53.176;6.002;2023-09-30T04:40:17;10.98;;;2.90;;
54517;SDS011;40423;53.176;6.002;2023-09-30T04:42:46;10.60;;;3.05;;
54517;SDS011;40423;53.176;6.002;2023-09-30T04:45:13;12.25;;;3.92;;
54517;SDS011;40423;53.176;6.002;2023-09-30T04:47:41;9.95;;;4.20;;
54517;SDS011;40423;53.176;6.002;2023-09-30T04:50:09;9.93;;;4.15;;
54517;SDS011;40423;53.176;6.002;2023-09-30T04:52:36;12.18;;;3.97;;
54517;SDS011;40423;53.176;6.002;2023-09-30T04:55:04;7.93;;;3.75;;
54517;SDS011;40423;53.176;6.002;2023-09-30T04:57:30;11.45;;;3.05;;
54517;SDS011;40423;53.176;6.002;2023-09-30T04:59:56;6.13;;;2.88;;
54517;SDS011;40423;53.176;6.002;2023-09-30T05:02:26;8.55;;;3.20;;
54517;SDS011;40423;53.176;6.002;2023-09-30T05:04:53;8.88;;;2.65;;
54517;SDS011;40423;53.176;6.002;2023-09-30T05:07:22;10.57;;;3.42;;
54517;SDS011;40423;53.176;6.002;2023-09-30T05:09:48;10.02;;;4.05;;
54517;SDS011;40423;53.176;6.002;2023-09-30T05:12:13;9.43;;;3.65;;
54517;SDS011;40423;53.176;6.002;2023-09-30T05:14:41;12.98;;;2.88;;
54517;SDS011;40423;53.176;6.002;2023-09-30T05:17:07;9.00;;;3.58;;
54517;SDS011;40423;53.176;6.002;2023-09-30T05:19:33;11.27;;;3.00;;
54517;SDS011;40423;53.176;6.002;2023-09-30T05:21:59;8.43;;;3.38;;
54517;SDS011;40423;53.176;6.002;2023-09-30T05:24:27;9.85;;;3.00;;
54517;SDS011;40423;53.176;6.002;2023-09-30T05:26:53;9.52;;;3.63;;
54517;SDS011;40423;53.176;6.002;2023-09-30T05:29:18;11.88;;;3.53;;
54517;SDS011;40423;53.176;6.002;2023-09-30T05:31:45;8.50;;;3.15;;
54517;SDS011;40423;53.176;6.002;2023-09-30T05:34:12;7.97;;;3.42;;
54517;SDS011;40423;53.176;6.002;2023-09-30T05:36:38;11.20;;;3.50;;
54517;SDS011;40423;53.176;6.002;2023-09-30T05:39:03;7.43;;;3.08;;
54517;SDS011;40423;53.176;6.002;2023-09-30T05:41:30;9.73;;;3.38;;
54517;SDS011;40423;53.176;6.002;2023-09-30T05:43:58;12.32;;;3.50;;
54517;SDS011;40423;53.176;6.002;2023-09-30T05:46:24;7.93;;;3.63;;
54517;SDS011;40423;53.176;6.002;2023-09-30T05:48:52;8.30;;;4.20;;
54517;SDS011;40423;53.176;6.002;2023-09-30T05:51:18;9.75;;;4.20;;
54517;SDS011;40423;53.176;6.002;2023-09-30T05:53:44;12.02;;;4.70;;
54517;SDS011;40423;53.176;6.002;2023-09-30T05:56:12;15.57;;;7.70;;
54517;SDS011;40423;53.176;6.002;2023-09-30T05:58:40;18.90;;;7.40;;
54517;SDS011;40423;53.176;6.002;2023-09-30T06:01:09;13.63;;;6.75;;
54517;SDS011;40423;53.176;6.002;2023-09-30T06:03:36;15.02;;;7.38;;
54517;SDS011;40423;53.176;6.002;2023-09-30T06:06:12;11.02;;;6.25;;
54517;SDS011;40423;53.176;6.002;2023-09-30T06:08:44;14.10;;;5.45;;
54517;SDS011;40423;53.176;6.002;2023-09-30T06:11:16;12.52;;;5.53;;
54517;SDS011;40423;53.176;6.002;2023-09-30T06:13:52;7.72;;;3.95;;
54517;SDS011;40423;53.176;6.002;2023-09-30T06:16:24;8.75;;;3.88;;
54517;SDS011;40423;53.176;6.002;2023-09-30T06:18:51;16.08;;;4.60;;
54517;SDS011;40423;53.176;6.002;2023-09-30T06:21:19;10.80;;;4.70;;
54517;SDS011;40423;53.176;6.002;2023-09-30T06:23:49;16.15;;;4.75;;
54517;SDS011;40423;53.176;6.002;2023-09-30T06:26:17;9.98;;;4.43;;
54517;SDS011;40423;53.176;6.002;2023-09-30T06:28:43;13.48;;;4.57;;
54517;SDS011;40423;53.176;6.002;2023-09-30T06:31:10;11.10;;;5.13;;
54517;SDS011;40423;53.176;6.002;2023-09-30T06:33:36;12.68;;;5.30;;
54517;SDS011;40423;53.176;6.002;2023-09-30T06:36:12;10.30;;;4.32;;
54517;SDS011;40423;53.176;6.002;2023-09-30T06:38:41;15.52;;;6.90;;
54517;SDS011;40423;53.176;6.002;2023-09-30T06:41:14;18.65;;;7.80;;
54517;SDS011;40423;53.176;6.002;2023-09-30T06:43:41;13.32;;;7.10;;
54517;SDS011;40423;53.176;6.002;2023-09-30T06:46:07;8.52;;;5.50;;
54517;SDS011;40423;53.176;6.002;2023-09-30T06:48:36;10.30;;;5.55;;
54517;SDS011;40423;53.176;6.002;2023-09-30T06:51:02;14.82;;;5.35;;
54517;SDS011;40423;53.176;6.002;2023-09-30T06:53:28;13.98;;;6.13;;
54517;SDS011;40423;53.176;6.002;2023-09-30T06:55:54;16.60;;;6.55;;
54517;SDS011;40423;53.176;6.002;2023-09-30T06:58:20;10.98;;;6.30;;
54517;SDS011;40423;53.176;6.002;2023-09-30T07:00:49;17.08;;;7.90;;
54517;SDS011;40423;53.176;6.002;2023-09-30T07:03:21;11.23;;;5.68;;
54517;SDS011;40423;53.176;6.002;2023-09-30T07:05:51;15.40;;;6.43;;
54517;SDS011;40423;53.176;6.002;2023-09-30T07:08:19;14.32;;;6.22;;
54517;SDS011;40423;53.176;6.002;2023-09-30T07:10:46;14.50;;;6.80;;
54517;SDS011;40423;53.176;6.002;2023-09-30T07:13:14;12.43;;;8.40;;
54517;SDS011;40423;53.176;6.002;2023-09-30T07:15:41;15.23;;;8.00;;
54517;SDS011;40423;53.176;6.002;2023-09-30T07:18:06;12.93;;;6.57;;
54517;SDS011;40423;53.176;6.002;2023-09-30T07:20:32;16.50;;;7.72;;
54517;SDS011;40423;53.176;6.002;2023-09-30T07:22:59;16.73;;;7.47;;
54517;SDS011;40423;53.176;6.002;2023-09-30T07:25:26;11.73;;;6.78;;
54517;SDS011;40423;53.176;6.002;2023-09-30T07:27:52;18.77;;;8.43;;
54517;SDS011;40423;53.176;6.002;2023-09-30T07:30:18;14.82;;;9.50;;
54517;SDS011;40423;53.176;6.002;2023-09-30T07:32:44;13.52;;;7.57;;
54517;SDS011;40423;53.176;6.002;2023-09-30T07:35:10;15.05;;;8.27;;
54517;SDS011;40423;53.176;6.002;2023-09-30T07:37:37;15.15;;;8.90;;
54517;SDS011;40423;53.176;6.002;2023-09-30T07:40:03;20.83;;;10.55;;
54517;SDS011;40423;53.176;6.002;2023-09-30T07:42:36;17.33;;;9.25;;
54517;SDS011;40423;53.176;6.002;2023-09-30T07:45:02;13.52;;;7.72;;
54517;SDS011;40423;53.176;6.002;2023-09-30T07:47:31;14.20;;;6.65;;
54517;SDS011;40423;53.176;6.002;2023-09-30T07:49:59;12.27;;;6.80;;
54517;SDS011;40423;53.176;6.002;2023-09-30T07:52:27;11.98;;;6.55;;
54517;SDS011;40423;53.176;6.002;2023-09-30T07:54:53;21.33;;;9.10;;
54517;SDS011;40423;53.176;6.002;2023-09-30T07:57:19;14.23;;;6.55;;
54517;SDS011;40423;53.176;6.002;2023-09-30T07:59:45;14.35;;;7.43;;
54517;SDS011;40423;53.176;6.002;2023-09-30T08:02:11;16.08;;;6.88;;
54517;SDS011;40423;53.176;6.002;2023-09-30T08:04:37;13.80;;;6.03;;
54517;SDS011;40423;53.176;6.002;2023-09-30T08:07:03;14.20;;;5.53;;
54517;SDS011;40423;53.176;6.002;2023-09-30T08:09:32;14.43;;;6.05;;
54517;SDS011;40423;53.176;6.002;2023-09-30T08:12:02;20.70;;;14.80;;
54517;SDS011;40423;53.176;6.002;2023-09-30T08:14:29;20.92;;;14.55;;
54517;SDS011;40423;53.176;6.002;2023-09-30T08:16:55;13.35;;;6.88;;
54517;SDS011;40423;53.176;6.002;2023-09-30T08:19:21;12.63;;;4.53;;
54517;SDS011;40423;53.176;6.002;2023-09-30T08:21:47;14.48;;;3.95;;
54517;SDS011;40423;53.176;6.002;2023-09-30T08:24:14;14.48;;;4.53;;
54517;SDS011;40423;53.176;6.002;2023-09-30T08:26:39;11.70;;;3.72;;
54517;SDS011;40423;53.176;6.002;2023-09-30T08:29:05;7.70;;;3.33;;
54517;SDS011;40423;53.176;6.002;2023-09-30T08:31:31;8.65;;;3.63;;
54517;SDS011;40423;53.176;6.002;2023-09-30T08:33:58;11.45;;;3.75;;
54517;SDS011;40423;53.176;6.002;2023-09-30T08:36:23;10.23;;;3.65;;
54517;SDS011;40423;53.176;6.002;2023-09-30T08:38:50;10.85;;;3.80;;
54517;SDS011;40423;53.176;6.002;2023-09-30T08:41:31;10.43;;;4.00;;
54517;SDS011;40423;53.176;6.002;2023-09-30T08:44:01;11.43;;;3.88;;
54517;SDS011;40423;53.176;6.002;2023-09-30T08:46:32;10.10;;;3.75;;
54517;SDS011;40423;53.176;6.002;2023-09-30T08:49:03;12.93;;;3.70;;
54517;SDS011;40423;53.176;6.002;2023-09-30T08:51:31;9.98;;;4.10;;
54517;SDS011;40423;53.176;6.002;2023-09-30T08:53:57;13.77;;;4.20;;
54517;SDS011;40423;53.176;6.002;2023-09-30T08:56:26;10.43;;;5.30;;
54517;SDS011;40423;53.176;6.002;2023-09-30T08:59:02;18.50;;;7.97;;
54517;SDS011;40423;53.176;6.002;2023-09-30T09:01:29;11.82;;;4.75;;
54517;SDS011;40423;53.176;6.002;2023-09-30T09:03:56;10.90;;;4.47;;
54517;SDS011;40423;53.176;6.002;2023-09-30T09:06:22;12.90;;;4.55;;
54517;SDS011;40423;53.176;6.002;2023-09-30T09:08:49;7.93;;;4.07;;
54517;SDS011;40423;53.176;6.002;2023-09-30T09:11:15;13.00;;;4.28;;
54517;SDS011;40423;53.176;6.002;2023-09-30T09:13:49;14.25;;;4.45;;
54517;SDS011;40423;53.176;6.002;2023-09-30T09:16:26;15.32;;;4.97;;
54517;SDS011;40423;53.176;6.002;2023-09-30T09:18:51;13.77;;;4.07;;
54517;SDS011;40423;53.176;6.002;2023-09-30T09:21:19;11.95;;;3.55;;
54517;SDS011;40423;53.176;6.002;2023-09-30T09:23:48;13.57;;;4.15;;
54517;SDS011;40423;53.176;6.002;2023-09-30T09:26:29;13.30;;;4.75;;
54517;SDS011;40423;53.176;6.002;2023-09-30T09:29:00;11.10;;;3.90;;
54517;SDS011;40423;53.176;6.002;2023-09-30T09:31:31;9.57;;;3.63;;
54517;SDS011;40423;53.176;6.002;2023-09-30T09:33:59;12.43;;;3.55;;
54517;SDS011;40423;53.176;6.002;2023-09-30T09:39:05;8.68;;;2.95;;
54517;SDS011;40423;53.176;6.002;2023-09-30T09:41:31;11.07;;;2.50;;
54517;SDS011;40423;53.176;6.002;2023-09-30T09:43:58;13.95;;;2.88;;
54517;SDS011;40423;53.176;6.002;2023-09-30T09:46:24;10.90;;;2.35;;
54517;SDS011;40423;53.176;6.002;2023-09-30T09:48:52;11.00;;;2.95;;
54517;SDS011;40423;53.176;6.002;2023-09-30T09:51:20;9.60;;;2.10;;
54517;SDS011;40423;53.176;6.002;2023-09-30T09:53:46;8.27;;;2.20;;
54517;SDS011;40423;53.176;6.002;2023-09-30T09:56:15;11.10;;;2.05;;
54517;SDS011;40423;53.176;6.002;2023-09-30T09:58:42;10.15;;;2.65;;
54517;SDS011;40423;53.176;6.002;2023-09-30T10:01:09;10.13;;;2.20;;
54517;SDS011;40423;53.176;6.002;2023-09-30T10:03:35;13.55;;;2.70;;
54517;SDS011;40423;53.176;6.002;2023-09-30T10:06:02;8.35;;;2.38;;
54517;SDS011;40423;53.176;6.002;2023-09-30T10:08:37;7.80;;;2.33;;
54517;SDS011;40423;53.176;6.002;2023-09-30T10:11:06;10.15;;;2.30;;
54517;SDS011;40423;53.176;6.002;2023-09-30T10:21:39;6.65;;;2.17;;
54517;SDS011;40423;53.176;6.002;2023-09-30T10:29:47;9.95;;;2.35;;
54517;SDS011;40423;53.176;6.002;2023-09-30T10:32:14;8.23;;;2.10;;
54517;SDS011;40423;53.176;6.002;2023-09-30T10:34:50;10.52;;;2.17;;
54517;SDS011;40423;53.176;6.002;2023-09-30T10:39:59;7.35;;;1.70;;
54517;SDS011;40423;53.176;6.002;2023-09-30T10:42:44;11.82;;;2.67;;
54517;SDS011;40423;53.176;6.002;2023-09-30T10:53:26;11.23;;;2.42;;
54517;SDS011;40423;53.176;6.002;2023-09-30T10:55:56;10.57;;;2.47;;
54517;SDS011;40423;53.176;6.002;2023-09-30T11:01:12;7.53;;;3.05;;
54517;SDS011;40423;53.176;6.002;2023-09-30T11:03:43;7.38;;;2.33;;
54517;SDS011;40423;53.176;6.002;2023-09-30T11:06:13;8.95;;;2.83;;
54517;SDS011;40423;53.176;6.002;2023-09-30T11:08:44;6.90;;;2.30;;
54517;SDS011;40423;53.176;6.002;2023-09-30T11:11:15;10.63;;;2.83;;
54517;SDS011;40423;53.176;6.002;2023-09-30T11:13:41;10.10;;;2.88;;
54517;SDS011;40423;53.176;6.002;2023-09-30T11:16:07;8.82;;;2.83;;
54517;SDS011;40423;53.176;6.002;2023-09-30T11:18:33;8.38;;;2.13;;
54517;SDS011;40423;53.176;6.002;2023-09-30T11:21:05;9.43;;;2.10;;
54517;SDS011;40423;53.176;6.002;2023-09-30T11:23:35;6.97;;;1.77;;
54517;SDS011;40423;53.176;6.002;2023-09-30T11:26:02;5.65;;;1.48;;
54517;SDS011;40423;53.176;6.002;2023-09-30T11:28:40;7.40;;;1.70;;
54517;SDS011;40423;53.176;6.002;2023-09-30T11:31:11;7.30;;;1.52;;
54517;SDS011;40423;53.176;6.002;2023-09-30T11:33:49;11.07;;;1.63;;
54517;SDS011;40423;53.176;6.002;2023-09-30T11:36:22;5.35;;;1.50;;
54517;SDS011;40423;53.176;6.002;2023-09-30T11:38:49;5.63;;;1.70;;
54517;SDS011;40423;53.176;6.002;2023-09-30T11:41:17;7.20;;;2.03;;
54517;SDS011;40423;53.176;6.002;2023-09-30T11:43:59;7.20;;;2.20;;
54517;SDS011;40423;53.176;6.002;2023-09-30T11:46:46;9.07;;;2.08;;
54517;SDS011;40423;53.176;6.002;2023-09-30T11:49:24;10.52;;;2.78;;
54517;SDS011;40423;53.176;6.002;2023-09-30T11:52:07;7.15;;;2.30;;
54517;SDS011;40423;53.176;6.002;2023-09-30T11:54:38;7.32;;;1.83;;
54517;SDS011;40423;53.176;6.002;2023-09-30T11:57:08;8.13;;;2.20;;
54517;SDS011;40423;53.176;6.002;2023-09-30T11:59:35;6.13;;;1.95;;
54517;SDS011;40423;53.176;6.002;2023-09-30T12:02:07;7.03;;;1.80;;
54517;SDS011;40423;53.176;6.002;2023-09-30T12:04:40;6.13;;;2.00;;
54517;SDS011;40423;53.176;6.002;2023-09-30T12:07:07;7.47;;;2.00;;
54517;SDS011;40423;53.176;6.002;2023-09-30T12:09:33;6.13;;;1.85;;
54517;SDS011;40423;53.176;6.002;2023-09-30T12:12:02;6.90;;;1.90;;
54517;SDS011;40423;53.176;6.002;2023-09-30T12:14:29;4.72;;;1.63;;
54517;SDS011;40423;53.176;6.002;2023-09-30T12:16:56;7.50;;;1.73;;
54517;SDS011;40423;53.176;6.002;2023-09-30T12:19:22;9.35;;;1.80;;
54517;SDS011;40423;53.176;6.002;2023-09-30T12:21:48;7.10;;;1.83;;
54517;SDS011;40423;53.176;6.002;2023-09-30T12:24:14;7.45;;;2.40;;
54517;SDS011;40423;53.176;6.002;2023-09-30T12:26:49;7.50;;;1.92;;
54517;SDS011;40423;53.176;6.002;2023-09-30T12:29:19;6.20;;;1.70;;
54517;SDS011;40423;53.176;6.002;2023-09-30T12:31:47;6.50;;;1.65;;
54517;SDS011;40423;53.176;6.002;2023-09-30T12:34:14;8.27;;;2.33;;
54517;SDS011;40423;53.176;6.002;2023-09-30T12:36:40;8.18;;;2.30;;
54517;SDS011;40423;53.176;6.002;2023-09-30T12:39:07;9.55;;;2.10;;
54517;SDS011;40423;53.176;6.002;2023-09-30T12:41:40;9.23;;;2.00;;
54517;SDS011;40423;53.176;6.002;2023-09-30T12:44:07;8.35;;;2.33;;
54517;SDS011;40423;53.176;6.002;2023-09-30T12:46:33;6.53;;;2.08;;
54517;SDS011;40423;53.176;6.002;2023-09-30T12:49:01;6.28;;;1.75;;
54517;SDS011;40423;53.176;6.002;2023-09-30T12:51:34;11.52;;;2.08;;
54517;SDS011;40423;53.176;6.002;2023-09-30T12:54:00;6.05;;;1.60;;
54517;SDS011;40423;53.176;6.002;2023-09-30T12:56:26;6.53;;;1.70;;
54517;SDS011;40423;53.176;6.002;2023-09-30T12:58:54;6.93;;;1.70;;
54517;SDS011;40423;53.176;6.002;2023-09-30T13:01:20;8.13;;;2.28;;
54517;SDS011;40423;53.176;6.002;2023-09-30T13:03:47;6.82;;;1.50;;
54517;SDS011;40423;53.176;6.002;2023-09-30T13:06:14;9.60;;;2.15;;
54517;SDS011;40423;53.176;6.002;2023-09-30T13:08:41;7.90;;;1.85;;
54517;SDS011;40423;53.176;6.002;2023-09-30T13:11:07;7.03;;;2.00;;
54517;SDS011;40423;53.176;6.002;2023-09-30T13:13:33;5.22;;;1.58;;
54517;SDS011;40423;53.176;6.002;2023-09-30T13:16:00;8.77;;;2.17;;
54517;SDS011;40423;53.176;6.002;2023-09-30T13:18:26;8.60;;;2.17;;
54517;SDS011;40423;53.176;6.002;2023-09-30T13:20:52;7.18;;;2.33;;
54517;SDS011;40423;53.176;6.002;2023-09-30T13:23:18;10.75;;;3.17;;
54517;SDS011;40423;53.176;6.002;2023-09-30T13:25:44;7.38;;;1.70;;
54517;SDS011;40423;53.176;6.002;2023-09-30T13:28:10;4.93;;;1.63;;
54517;SDS011;40423;53.176;6.002;2023-09-30T13:30:36;7.70;;;1.90;;
54517;SDS011;40423;53.176;6.002;2023-09-30T13:33:02;9.02;;;1.90;;
54517;SDS011;40423;53.176;6.002;2023-09-30T13:35:28;5.32;;;1.77;;
54517;SDS011;40423;53.176;6.002;2023-09-30T13:37:54;10.38;;;1.98;;
54517;SDS011;40423;53.176;6.002;2023-09-30T13:40:19;5.45;;;1.92;;
54517;SDS011;40423;53.176;6.002;2023-09-30T13:42:45;7.05;;;1.70;;
54517;SDS011;40423;53.176;6.002;2023-09-30T13:45:12;5.40;;;1.98;;
54517;SDS011;40423;53.176;6.002;2023-09-30T13:47:38;5.68;;;1.88;;
54517;SDS011;40423;53.176;6.002;2023-09-30T13:50:04;6.55;;;2.45;;
54517;SDS011;40423;53.176;6.002;2023-09-30T13:52:33;6.93;;;1.73;;
54517;SDS011;40423;53.176;6.002;2023-09-30T13:54:59;7.22;;;2.30;;
54517;SDS011;40423;53.176;6.002;2023-09-30T13:57:25;8.23;;;2.05;;
54517;SDS011;40423;53.176;6.002;2023-09-30T13:59:50;6.97;;;2.13;;
54517;SDS011;40423;53.176;6.002;2023-09-30T14:02:16;8.65;;;1.88;;
54517;SDS011;40423;53.176;6.002;2023-09-30T14:04:42;7.40;;;1.90;;
54517;SDS011;40423;53.176;6.002;2023-09-30T14:07:09;5.60;;;1.70;;
54517;SDS011;40423;53.176;6.002;2023-09-30T14:09:34;6.53;;;1.95;;
54517;SDS011;40423;53.176;6.002;2023-09-30T14:12:00;4.55;;;1.80;;
54517;SDS011;40423;53.176;6.002;2023-09-30T14:14:30;5.82;;;2.10;;
54517;SDS011;40423;53.176;6.002;2023-09-30T14:16:57;6.60;;;1.55;;
54517;SDS011;40423;53.176;6.002;2023-09-30T14:19:23;7.40;;;2.15;;
54517;SDS011;40423;53.176;6.002;2023-09-30T14:21:48;5.43;;;1.92;;
54517;SDS011;40423;53.176;6.002;2023-09-30T14:24:14;9.18;;;2.30;;
54517;SDS011;40423;53.176;6.002;2023-09-30T14:26:40;7.68;;;2.35;;
54517;SDS011;40423;53.176;6.002;2023-09-30T14:29:07;7.18;;;1.70;;
54517;SDS011;40423;53.176;6.002;2023-09-30T14:31:32;7.25;;;2.38;;
54517;SDS011;40423;53.176;6.002;2023-09-30T14:33:58;6.40;;;2.03;;
54517;SDS011;40423;53.176;6.002;2023-09-30T14:36:24;9.02;;;2.03;;
54517;SDS011;40423;53.176;6.002;2023-09-30T14:38:49;9.65;;;1.65;;
54517;SDS011;40423;53.176;6.002;2023-09-30T14:41:15;9.15;;;2.35;;
54517;SDS011;40423;53.176;6.002;2023-09-30T14:43:41;10.80;;;2.42;;
54517;SDS011;40423;53.176;6.002;2023-09-30T14:46:07;7.20;;;1.75;;
54517;SDS011;40423;53.176;6.002;2023-09-30T14:48:35;6.55;;;1.85;;
54517;SDS011;40423;53.176;6.002;2023-09-30T14:51:01;7.85;;;1.73;;
54517;SDS011;40423;53.176;6.002;2023-09-30T14:53:30;6.57;;;1.80;;
54517;SDS011;40423;53.176;6.002;2023-09-30T14:55:56;8.02;;;1.83;;
54517;SDS011;40423;53.176;6.002;2023-09-30T14:58:26;8.93;;;2.53;;
54517;SDS011;40423;53.176;6.002;2023-09-30T15:00:52;9.98;;;2.40;;
54517;SDS011;40423;53.176;6.002;2023-09-30T15:03:18;5.15;;;1.70;;
54517;SDS011;40423;53.176;6.002;2023-09-30T15:05:47;8.70;;;2.10;;
54517;SDS011;40423;53.176;6.002;2023-09-30T15:08:16;7.72;;;2.28;;
54517;SDS011;40423;53.176;6.002;2023-09-30T15:10:41;4.95;;;1.60;;
54517;SDS011;40423;53.176;6.002;2023-09-30T15:13:07;14.48;;;3.22;;